sensor_id;sensor_type;location;lat;lon;timestamp;temperature;humidity
14993;DHT22;7592;51.088;13.732;2023-12-29T00:02:42;7.20;99.90
14993;DHT22;7592;51.088;13.732;2023-12-29T00:07:34;7.20;99.90
14993;DHT22;7592;51.088;13.732;2023-12-29T00:12:26;7.20;99.90
14993;DHT22;7592;51.088;13.732;2023-12-29T00:17:19;7.00;99.90
14993;DHT22;7592;51.088;13.732;2023-12-29T00:22:11;6.80;99.90
14993;DHT22;7592;51.088;13.732;2023-12-29T00:27:04;6.60;99.90
14993;DHT22;7592;51.088;13.732;2023-12-29T00:31:56;6.70;99.90
14993;DHT22;7592;51.088;13.732;2023-12-29T00:36:48;6.90;99.90
14993;DHT22;7592;51.088;13.732;2023-12-29T00:41:41;6.70;99.90
14993;DHT22;7592;51.088;13.732;2023-12-29T00:46:35;6.50;99.90
14993;DHT22;7592;51.088;13.732;2023-12-29T00:51:27;6.50;99.90
14993;DHT22;7592;51.088;13.732;2023-12-29T00:56:21;6.40;99.90
14993;DHT22;7592;51.088;13.732;2023-12-29T01:01:14;6.30;99.90
14993;DHT22;7592;51.088;13.732;2023-12-29T01:06:06;6.40;99.90
14993;DHT22;7592;51.088;13.732;2023-12-29T01:10:58;6.30;99.90
14993;DHT22;7592;51.088;13.732;2023-12-29T01:15:50;6.30;99.90
14993;DHT22;7592;51.088;13.732;2023-12-29T01:20:42;6.30;99.90
14993;DHT22;7592;51.088;13.732;2023-12-29T01:25:34;6.40;99.90
14993;DHT22;7592;51.088;13.732;2023-12-29T01:30:28;6.60;99.90
14993;DHT22;7592;51.088;13.732;2023-12-29T01:35:20;6.60;99.90
14993;DHT22;7592;51.088;13.732;2023-12-29T01:40:12;6.70;99.90
14993;DHT22;7592;51.088;13.732;2023-12-29T01:45:06;6.80;99.90
14993;DHT22;7592;51.088;13.732;2023-12-29T01:50:02;6.90;99.90
14993;DHT22;7592;51.088;13.732;2023-12-29T01:54:54;7.20;99.90
14993;DHT22;7592;51.088;13.732;2023-12-29T01:59:47;7.50;99.90
14993;DHT22;7592;51.088;13.732;2023-12-29T02:04:41;7.50;99.90
14993;DHT22;7592;51.088;13.732;2023-12-29T02:09:34;7.70;99.90
14993;DHT22;7592;51.088;13.732;2023-12-29T02:14:27;7.70;99.90
14993;DHT22;7592;51.088;13.732;2023-12-29T02:19:39;7.90;99.90
14993;DHT22;7592;51.088;13.732;2023-12-29T02:24:34;8.10;99.90
14993;DHT22;7592;51.088;13.732;2023-12-29T02:29:30;8.00;99.90
14993;DHT22;7592;51.088;13.732;2023-12-29T02:34:25;7.80;99.90
14993;DHT22;7592;51.088;13.732;2023-12-29T02:39:18;7.80;99.90
14993;DHT22;7592;51.088;13.732;2023-12-29T02:44:10;7.60;99.90
14993;DHT22;7592;51.088;13.732;2023-12-29T02:49:02;7.50;99.90
14993;DHT22;7592;51.088;13.732;2023-12-29T02:53:54;7.60;99.90
14993;DHT22;7592;51.088;13.732;2023-12-29T02:58:47;7.50;99.90
14993;DHT22;7592;51.088;13.732;2023-12-29T03:03:40;7.40;99.90
14993;DHT22;7592;51.088;13.732;2023-12-29T03:08:32;7.60;99.90
14993;DHT22;7592;51.088;13.732;2023-12-29T03:13:24;8.10;99.90
14993;DHT22;7592;51.088;13.732;2023-12-29T03:18:16;8.10;99.90
14993;DHT22;7592;51.088;13.732;2023-12-29T03:23:08;7.90;99.90
14993;DHT22;7592;51.088;13.732;2023-12-29T03:28:01;7.70;99.90
14993;DHT22;7592;51.088;13.732;2023-12-29T03:32:53;7.60;99.90
14993;DHT22;7592;51.088;13.732;2023-12-29T03:37:45;7.50;99.90
14993;DHT22;7592;51.088;13.732;2023-12-29T03:42:39;7.50;99.90
14993;DHT22;7592;51.088;13.732;2023-12-29T03:47:31;7.70;99.90
14993;DHT22;7592;51.088;13.732;2023-12-29T03:52:23;7.80;99.90
14993;DHT22;7592;51.088;13.732;2023-12-29T03:57:16;7.70;99.90
14993;DHT22;7592;51.088;13.732;2023-12-29T04:02:08;7.80;99.90
14993;DHT22;7592;51.088;13.732;2023-12-29T04:07:00;7.80;99.90
14993;DHT22;7592;51.088;13.732;2023-12-29T04:11:52;7.70;99.90
14993;DHT22;7592;51.088;13.732;2023-12-29T04:16:44;7.70;99.90
14993;DHT22;7592;51.088;13.732;2023-12-29T04:21:36;7.70;99.90
14993;DHT22;7592;51.088;13.732;2023-12-29T04:26:28;7.70;99.90
14993;DHT22;7592;51.088;13.732;2023-12-29T04:31:20;7.70;99.90
14993;DHT22;7592;51.088;13.732;2023-12-29T04:36:13;8.10;99.90
14993;DHT22;7592;51.088;13.732;2023-12-29T04:41:05;8.20;99.90
14993;DHT22;7592;51.088;13.732;2023-12-29T04:45:57;8.30;99.90
14993;DHT22;7592;51.088;13.732;2023-12-29T04:50:49;8.70;99.90
14993;DHT22;7592;51.088;13.732;2023-12-29T04:55:41;8.70;99.90
14993;DHT22;7592;51.088;13.732;2023-12-29T05:00:33;8.40;99.90
14993;DHT22;7592;51.088;13.732;2023-12-29T05:05:25;8.30;99.90
14993;DHT22;7592;51.088;13.732;2023-12-29T05:10:18;8.30;99.90
14993;DHT22;7592;51.088;13.732;2023-12-29T05:15:10;8.20;99.90
14993;DHT22;7592;51.088;13.732;2023-12-29T05:20:02;8.20;99.90
14993;DHT22;7592;51.088;13.732;2023-12-29T05:24:55;8.40;99.90
14993;DHT22;7592;51.088;13.732;2023-12-29T05:29:51;8.30;99.90
14993;DHT22;7592;51.088;13.732;2023-12-29T05:34:43;8.20;99.90
14993;DHT22;7592;51.088;13.732;2023-12-29T05:39:35;8.10;99.90
14993;DHT22;7592;51.088;13.732;2023-12-29T05:44:27;8.00;99.90
14993;DHT22;7592;51.088;13.732;2023-12-29T05:49:24;8.00;99.90
14993;DHT22;7592;51.088;13.732;2023-12-29T05:54:16;7.90;99.90
14993;DHT22;7592;51.088;13.732;2023-12-29T05:59:10;7.80;99.90
14993;DHT22;7592;51.088;13.732;2023-12-29T06:04:02;7.90;99.90
14993;DHT22;7592;51.088;13.732;2023-12-29T06:08:55;7.80;99.90
14993;DHT22;7592;51.088;13.732;2023-12-29T06:13:47;7.80;99.90
14993;DHT22;7592;51.088;13.732;2023-12-29T06:18:39;8.00;99.90
14993;DHT22;7592;51.088;13.732;2023-12-29T06:23:31;8.00;99.90
14993;DHT22;7592;51.088;13.732;2023-12-29T06:28:23;8.20;99.90
14993;DHT22;7592;51.088;13.732;2023-12-29T06:33:15;8.20;99.90
14993;DHT22;7592;51.088;13.732;2023-12-29T06:38:08;8.10;99.90
14993;DHT22;7592;51.088;13.732;2023-12-29T06:43:00;8.30;99.90
14993;DHT22;7592;51.088;13.732;2023-12-29T06:47:53;8.30;99.90
14993;DHT22;7592;51.088;13.732;2023-12-29T06:52:45;8.30;99.90
14993;DHT22;7592;51.088;13.732;2023-12-29T06:57:37;8.30;99.90
14993;DHT22;7592;51.088;13.732;2023-12-29T07:02:30;8.50;99.90
14993;DHT22;7592;51.088;13.732;2023-12-29T07:07:22;8.50;99.90
14993;DHT22;7592;51.088;13.732;2023-12-29T07:12:14;8.70;99.90
14993;DHT22;7592;51.088;13.732;2023-12-29T07:17:07;8.60;99.90
14993;DHT22;7592;51.088;13.732;2023-12-29T07:22:00;8.60;99.90
14993;DHT22;7592;51.088;13.732;2023-12-29T07:26:52;8.50;99.90
14993;DHT22;7592;51.088;13.732;2023-12-29T07:31:46;8.50;99.90
14993;DHT22;7592;51.088;13.732;2023-12-29T07:36:39;8.80;99.90
14993;DHT22;7592;51.088;13.732;2023-12-29T07:41:31;8.80;99.90
14993;DHT22;7592;51.088;13.732;2023-12-29T07:46:27;9.00;99.90
14993;DHT22;7592;51.088;13.732;2023-12-29T07:51:19;9.30;99.90
14993;DHT22;7592;51.088;13.732;2023-12-29T07:56:12;9.50;99.90
14993;DHT22;7592;51.088;13.732;2023-12-29T08:01:04;9.60;99.90
14993;DHT22;7592;51.088;13.732;2023-12-29T08:05:56;9.80;99.90
14993;DHT22;7592;51.088;13.732;2023-12-29T08:10:48;9.80;99.90
14993;DHT22;7592;51.088;13.732;2023-12-29T08:15:40;10.00;99.90
14993;DHT22;7592;51.088;13.732;2023-12-29T08:20:33;10.20;99.90
14993;DHT22;7592;51.088;13.732;2023-12-29T08:25:25;10.50;99.90
14993;DHT22;7592;51.088;13.732;2023-12-29T08:30:17;10.80;99.90
14993;DHT22;7592;51.088;13.732;2023-12-29T08:35:10;10.90;99.90
14993;DHT22;7592;51.088;13.732;2023-12-29T08:40:02;11.00;99.90
14993;DHT22;7592;51.088;13.732;2023-12-29T08:44:55;11.20;99.90
14993;DHT22;7592;51.088;13.732;2023-12-29T08:49:47;11.40;99.90
14993;DHT22;7592;51.088;13.732;2023-12-29T08:54:41;11.40;99.90
14993;DHT22;7592;51.088;13.732;2023-12-29T08:59:34;11.50;99.90
14993;DHT22;7592;51.088;13.732;2023-12-29T09:04:26;11.70;99.90
14993;DHT22;7592;51.088;13.732;2023-12-29T09:09:18;11.70;99.90
14993;DHT22;7592;51.088;13.732;2023-12-29T09:14:10;11.70;99.90
14993;DHT22;7592;51.088;13.732;2023-12-29T09:19:02;11.90;99.90
14993;DHT22;7592;51.088;13.732;2023-12-29T09:24:08;12.20;99.90
14993;DHT22;7592;51.088;13.732;2023-12-29T09:29:01;12.30;99.90
14993;DHT22;7592;51.088;13.732;2023-12-29T09:33:53;12.30;99.90
14993;DHT22;7592;51.088;13.732;2023-12-29T09:38:45;12.40;99.90
14993;DHT22;7592;51.088;13.732;2023-12-29T09:43:38;12.30;99.90
14993;DHT22;7592;51.088;13.732;2023-12-29T09:48:33;12.60;99.90
14993;DHT22;7592;51.088;13.732;2023-12-29T09:53:27;12.90;99.90
14993;DHT22;7592;51.088;13.732;2023-12-29T09:58:21;13.00;99.90
14993;DHT22;7592;51.088;13.732;2023-12-29T10:03:14;13.10;99.90
14993;DHT22;7592;51.088;13.732;2023-12-29T10:08:07;12.90;99.90
14993;DHT22;7592;51.088;13.732;2023-12-29T10:13:01;12.60;99.90
14993;DHT22;7592;51.088;13.732;2023-12-29T10:18:27;12.50;99.90
14993;DHT22;7592;51.088;13.732;2023-12-29T10:28:23;12.20;99.90
14993;DHT22;7592;51.088;13.732;2023-12-29T10:33:22;12.30;99.90
14993;DHT22;7592;51.088;13.732;2023-12-29T10:38:15;12.20;99.90
14993;DHT22;7592;51.088;13.732;2023-12-29T10:43:07;12.30;99.90
14993;DHT22;7592;51.088;13.732;2023-12-29T10:48:01;13.20;99.90
14993;DHT22;7592;51.088;13.732;2023-12-29T10:58:05;15.90;99.90
14993;DHT22;7592;51.088;13.732;2023-12-29T11:02:58;16.90;99.90
14993;DHT22;7592;51.088;13.732;2023-12-29T11:07:55;18.10;99.90
14993;DHT22;7592;51.088;13.732;2023-12-29T11:12:48;18.30;99.70
14993;DHT22;7592;51.088;13.732;2023-12-29T11:17:44;18.70;97.60
14993;DHT22;7592;51.088;13.732;2023-12-29T11:22:42;19.00;95.10
14993;DHT22;7592;51.088;13.732;2023-12-29T11:27:35;18.70;94.50
14993;DHT22;7592;51.088;13.732;2023-12-29T11:32:43;17.90;95.90
14993;DHT22;7592;51.088;13.732;2023-12-29T11:42:34;17.40;96.60
14993;DHT22;7592;51.088;13.732;2023-12-29T11:47:38;17.60;97.00
14993;DHT22;7592;51.088;13.732;2023-12-29T11:52:34;18.30;95.00
14993;DHT22;7592;51.088;13.732;2023-12-29T11:57:33;17.40;96.30
14993;DHT22;7592;51.088;13.732;2023-12-29T12:02:27;16.70;97.70
14993;DHT22;7592;51.088;13.732;2023-12-29T12:12:44;15.40;99.90
14993;DHT22;7592;51.088;13.732;2023-12-29T12:17:36;14.80;99.90
14993;DHT22;7592;51.088;13.732;2023-12-29T12:22:30;14.40;99.90
14993;DHT22;7592;51.088;13.732;2023-12-29T12:27:28;14.00;99.90
14993;DHT22;7592;51.088;13.732;2023-12-29T12:32:20;13.80;99.90
14993;DHT22;7592;51.088;13.732;2023-12-29T12:37:22;14.00;99.90
14993;DHT22;7592;51.088;13.732;2023-12-29T12:42:15;14.10;99.90
14993;DHT22;7592;51.088;13.732;2023-12-29T12:47:13;14.00;99.90
14993;DHT22;7592;51.088;13.732;2023-12-29T12:52:07;14.00;99.90
14993;DHT22;7592;51.088;13.732;2023-12-29T12:56:59;13.80;99.90
14993;DHT22;7592;51.088;13.732;2023-12-29T13:01:52;13.90;99.90
14993;DHT22;7592;51.088;13.732;2023-12-29T13:06:44;14.00;99.90
14993;DHT22;7592;51.088;13.732;2023-12-29T13:11:41;14.00;99.90
14993;DHT22;7592;51.088;13.732;2023-12-29T13:16:37;13.80;99.90
14993;DHT22;7592;51.088;13.732;2023-12-29T13:21:33;13.60;99.90
14993;DHT22;7592;51.088;13.732;2023-12-29T13:26:27;13.50;99.90
14993;DHT22;7592;51.088;13.732;2023-12-29T13:31:22;13.30;99.90
14993;DHT22;7592;51.088;13.732;2023-12-29T13:41:30;13.20;99.90
14993;DHT22;7592;51.088;13.732;2023-12-29T13:46:22;13.10;99.90
14993;DHT22;7592;51.088;13.732;2023-12-29T13:51:15;13.00;99.90
14993;DHT22;7592;51.088;13.732;2023-12-29T13:56:10;12.90;99.90
14993;DHT22;7592;51.088;13.732;2023-12-29T14:01:10;12.80;99.90
14993;DHT22;7592;51.088;13.732;2023-12-29T14:06:08;12.70;99.90
14993;DHT22;7592;51.088;13.732;2023-12-29T14:11:00;12.70;99.90
14993;DHT22;7592;51.088;13.732;2023-12-29T14:15:58;12.70;99.90
14993;DHT22;7592;51.088;13.732;2023-12-29T14:20:50;12.70;99.90
14993;DHT22;7592;51.088;13.732;2023-12-29T14:25:42;12.70;99.90
14993;DHT22;7592;51.088;13.732;2023-12-29T14:30:35;12.60;99.90
14993;DHT22;7592;51.088;13.732;2023-12-29T14:35:28;12.60;99.90
14993;DHT22;7592;51.088;13.732;2023-12-29T14:40:21;12.60;99.90
14993;DHT22;7592;51.088;13.732;2023-12-29T14:45:13;12.60;99.90
14993;DHT22;7592;51.088;13.732;2023-12-29T14:50:06;12.60;99.90
14993;DHT22;7592;51.088;13.732;2023-12-29T14:54:58;12.50;99.90
14993;DHT22;7592;51.088;13.732;2023-12-29T14:59:50;12.50;99.90
14993;DHT22;7592;51.088;13.732;2023-12-29T15:04:44;12.40;99.90
14993;DHT22;7592;51.088;13.732;2023-12-29T15:09:36;12.40;99.90
14993;DHT22;7592;51.088;13.732;2023-12-29T15:14:28;12.40;99.90
14993;DHT22;7592;51.088;13.732;2023-12-29T15:19:20;12.40;99.90
14993;DHT22;7592;51.088;13.732;2023-12-29T15:24:13;12.40;99.90
14993;DHT22;7592;51.088;13.732;2023-12-29T15:29:05;12.40;99.90
14993;DHT22;7592;51.088;13.732;2023-12-29T15:33:58;12.30;99.90
14993;DHT22;7592;51.088;13.732;2023-12-29T15:38:50;12.30;99.90
14993;DHT22;7592;51.088;13.732;2023-12-29T15:43:42;12.30;99.90
14993;DHT22;7592;51.088;13.732;2023-12-29T15:48:34;12.40;99.90
14993;DHT22;7592;51.088;13.732;2023-12-29T15:53:27;12.40;99.90
14993;DHT22;7592;51.088;13.732;2023-12-29T15:58:19;12.40;99.90
14993;DHT22;7592;51.088;13.732;2023-12-29T16:03:11;12.40;99.90
14993;DHT22;7592;51.088;13.732;2023-12-29T16:08:04;12.30;99.90
14993;DHT22;7592;51.088;13.732;2023-12-29T16:12:56;12.30;99.90
14993;DHT22;7592;51.088;13.732;2023-12-29T16:17:48;12.30;99.90
14993;DHT22;7592;51.088;13.732;2023-12-29T16:22:40;12.30;99.90
14993;DHT22;7592;51.088;13.732;2023-12-29T16:27:32;12.20;99.90
14993;DHT22;7592;51.088;13.732;2023-12-29T16:32:24;12.20;99.90
14993;DHT22;7592;51.088;13.732;2023-12-29T16:37:24;12.20;99.90
14993;DHT22;7592;51.088;13.732;2023-12-29T16:42:18;12.10;99.90
14993;DHT22;7592;51.088;13.732;2023-12-29T16:47:11;12.20;99.90
14993;DHT22;7592;51.088;13.732;2023-12-29T16:52:04;12.10;99.90
14993;DHT22;7592;51.088;13.732;2023-12-29T16:56:56;12.10;99.90
14993;DHT22;7592;51.088;13.732;2023-12-29T17:01:48;12.10;99.90
14993;DHT22;7592;51.088;13.732;2023-12-29T17:06:41;12.10;99.90
14993;DHT22;7592;51.088;13.732;2023-12-29T17:11:33;12.10;99.90
14993;DHT22;7592;51.088;13.732;2023-12-29T17:16:25;12.00;99.90
14993;DHT22;7592;51.088;13.732;2023-12-29T17:21:22;12.00;99.90
14993;DHT22;7592;51.088;13.732;2023-12-29T17:26:15;12.00;99.90
14993;DHT22;7592;51.088;13.732;2023-12-29T17:31:08;12.00;99.90
14993;DHT22;7592;51.088;13.732;2023-12-29T17:36:00;12.00;99.90
14993;DHT22;7592;51.088;13.732;2023-12-29T17:40:52;12.00;99.90
14993;DHT22;7592;51.088;13.732;2023-12-29T17:45:44;12.00;99.90
14993;DHT22;7592;51.088;13.732;2023-12-29T17:50:36;11.90;99.90
14993;DHT22;7592;51.088;13.732;2023-12-29T17:55:28;11.90;99.90
14993;DHT22;7592;51.088;13.732;2023-12-29T18:00:21;11.70;99.90
14993;DHT22;7592;51.088;13.732;2023-12-29T18:05:13;11.70;99.90
14993;DHT22;7592;51.088;13.732;2023-12-29T18:10:05;11.60;99.90
14993;DHT22;7592;51.088;13.732;2023-12-29T18:14:59;11.70;99.90
14993;DHT22;7592;51.088;13.732;2023-12-29T18:19:52;11.70;99.90
14993;DHT22;7592;51.088;13.732;2023-12-29T18:24:44;11.90;99.90
14993;DHT22;7592;51.088;13.732;2023-12-29T18:29:37;12.00;99.90
14993;DHT22;7592;51.088;13.732;2023-12-29T18:34:29;12.10;99.90
14993;DHT22;7592;51.088;13.732;2023-12-29T18:39:21;12.00;99.90
14993;DHT22;7592;51.088;13.732;2023-12-29T18:44:13;12.00;99.90
14993;DHT22;7592;51.088;13.732;2023-12-29T18:49:05;12.00;99.90
14993;DHT22;7592;51.088;13.732;2023-12-29T18:53:58;12.10;99.90
14993;DHT22;7592;51.088;13.732;2023-12-29T18:58:50;12.10;99.90
14993;DHT22;7592;51.088;13.732;2023-12-29T19:03:43;12.10;99.90
14993;DHT22;7592;51.088;13.732;2023-12-29T19:08:35;12.10;99.90
14993;DHT22;7592;51.088;13.732;2023-12-29T19:13:27;12.00;99.90
14993;DHT22;7592;51.088;13.732;2023-12-29T19:18:20;12.00;99.90
14993;DHT22;7592;51.088;13.732;2023-12-29T19:23:12;12.00;99.90
14993;DHT22;7592;51.088;13.732;2023-12-29T19:28:04;11.90;99.90
14993;DHT22;7592;51.088;13.732;2023-12-29T19:32:57;11.80;99.90
14993;DHT22;7592;51.088;13.732;2023-12-29T19:37:50;11.70;99.90
14993;DHT22;7592;51.088;13.732;2023-12-29T19:42:42;11.70;99.90
14993;DHT22;7592;51.088;13.732;2023-12-29T19:47:35;11.70;99.90
14993;DHT22;7592;51.088;13.732;2023-12-29T19:52:27;11.50;99.90
14993;DHT22;7592;51.088;13.732;2023-12-29T19:57:20;11.70;99.90
14993;DHT22;7592;51.088;13.732;2023-12-29T20:02:12;11.70;99.90
14993;DHT22;7592;51.088;13.732;2023-12-29T20:07:05;11.80;99.90
14993;DHT22;7592;51.088;13.732;2023-12-29T20:11:57;11.90;99.90
14993;DHT22;7592;51.088;13.732;2023-12-29T20:16:51;11.90;99.90
14993;DHT22;7592;51.088;13.732;2023-12-29T20:21:43;12.00;99.90
14993;DHT22;7592;51.088;13.732;2023-12-29T20:26:36;12.10;99.90
14993;DHT22;7592;51.088;13.732;2023-12-29T20:31:29;12.10;99.90
14993;DHT22;7592;51.088;13.732;2023-12-29T20:36:24;12.10;99.90
14993;DHT22;7592;51.088;13.732;2023-12-29T20:41:17;12.20;99.90
14993;DHT22;7592;51.088;13.732;2023-12-29T20:46:10;12.10;99.90
14993;DHT22;7592;51.088;13.732;2023-12-29T20:51:02;12.20;99.90
14993;DHT22;7592;51.088;13.732;2023-12-29T20:56:08;12.10;99.90
14993;DHT22;7592;51.088;13.732;2023-12-29T21:01:01;12.20;99.90
14993;DHT22;7592;51.088;13.732;2023-12-29T21:05:54;12.20;99.90
14993;DHT22;7592;51.088;13.732;2023-12-29T21:10:46;12.10;99.90
14993;DHT22;7592;51.088;13.732;2023-12-29T21:15:41;12.10;99.90
14993;DHT22;7592;51.088;13.732;2023-12-29T21:20:36;11.90;99.90
14993;DHT22;7592;51.088;13.732;2023-12-29T21:25:29;11.80;99.90
14993;DHT22;7592;51.088;13.732;2023-12-29T21:30:24;11.80;99.90
14993;DHT22;7592;51.088;13.732;2023-12-29T21:35:17;11.90;99.90
14993;DHT22;7592;51.088;13.732;2023-12-29T21:40:10;11.90;99.90
14993;DHT22;7592;51.088;13.732;2023-12-29T21:45:06;12.00;99.90
14993;DHT22;7592;51.088;13.732;2023-12-29T21:50:05;12.00;99.90
14993;DHT22;7592;51.088;13.732;2023-12-29T21:54:57;12.10;99.90
14993;DHT22;7592;51.088;13.732;2023-12-29T21:59:50;12.10;99.90
14993;DHT22;7592;51.088;13.732;2023-12-29T22:04:42;11.90;99.90
14993;DHT22;7592;51.088;13.732;2023-12-29T22:09:34;11.70;99.90
14993;DHT22;7592;51.088;13.732;2023-12-29T22:14:26;11.60;99.90
14993;DHT22;7592;51.088;13.732;2023-12-29T22:19:18;11.60;99.90
14993;DHT22;7592;51.088;13.732;2023-12-29T22:24:10;11.70;99.90
14993;DHT22;7592;51.088;13.732;2023-12-29T22:29:03;11.70;99.90
14993;DHT22;7592;51.088;13.732;2023-12-29T22:33:55;11.80;99.90
14993;DHT22;7592;51.088;13.732;2023-12-29T22:38:47;11.80;99.90
14993;DHT22;7592;51.088;13.732;2023-12-29T22:43:40;11.90;99.90
14993;DHT22;7592;51.088;13.732;2023-12-29T22:48:32;11.90;99.90
14993;DHT22;7592;51.088;13.732;2023-12-29T22:53:25;11.70;99.90
14993;DHT22;7592;51.088;13.732;2023-12-29T22:58:18;11.40;99.90
14993;DHT22;7592;51.088;13.732;2023-12-29T23:03:10;11.50;99.90
14993;DHT22;7592;51.088;13.732;2023-12-29T23:08:02;11.60;99.90
14993;DHT22;7592;51.088;13.732;2023-12-29T23:12:54;11.70;99.90
14993;DHT22;7592;51.088;13.732;2023-12-29T23:17:47;11.40;99.90
14993;DHT22;7592;51.088;13.732;2023-12-29T23:22:39;11.30;99.90
14993;DHT22;7592;51.088;13.732;2023-12-29T23:27:32;11.50;99.90
14993;DHT22;7592;51.088;13.732;2023-12-29T23:32:24;11.50;99.90
14993;DHT22;7592;51.088;13.732;2023-12-29T23:37:17;11.60;99.90
14993;DHT22;7592;51.088;13.732;2023-12-29T23:42:09;11.70;99.90
14993;DHT22;7592;51.088;13.732;2023-12-29T23:47:01;11.80;99.90
14993;DHT22;7592;51.088;13.732;2023-12-29T23:51:53;11.80;99.90
14993;DHT22;7592;51.088;13.732;2023-12-29T23:56:46;11.80;99.90
